Terminal Aerodrome Forecast
Issued by NWS St Louis, MO

Home | Current Version | Previous Version | Graphics & Text | Print | Product List | Glossary On
Versions: 1 2 3 4 5 6 7 8 9 10 11 12 13 14 15 16 17 18 19 20 21 22 23 24 25
920
FTUS43 KLSX 081006 AAB
TAFSTL
TAF AMD
KSTL 081006Z 0810/0912 29018G28KT P6SM -SHSN OVC040
      TEMPO 0810/0814 BKN025
     FM081400 29018G28KT P6SM -SN OVC025
     FM082300 31018G28KT P6SM OVC030=

USA.gov is the U.S. government's official web portal to all federal, state and local government web resources and services.